Time;durP1;ratioP1;P1;durP2;ratioP2;P2;SDS_P1;SDS_P2;PMS_P1;PMS_P2;Temp;Humidity;BMP_temperature;BMP_pressure;BME280_temperature;BME280_humidity;BME280_pressure;Samples;Min_cycle;Max_cycle;Signal;HPM_P1;HPM_P2
2022/11/12 00:00:18;;;;;;;;;38.33;32.00;;;;;;;;5036410;28;45775;-81
2022/11/12 00:02:43;;;;;;;;;33.33;30.00;;;;;;;;5017972;28;48260;-82
2022/11/12 00:05:08;;;;;;;;;33.67;30.67;;;;;;;;5042123;28;45317;-81
2022/11/12 00:07:33;;;;;;;;;32.67;30.33;;;;;;;;5035231;28;45716;-82
2022/11/12 00:09:59;;;;;;;;;32.67;29.67;;;;;;;;5027685;28;45402;-82
2022/11/12 00:12:24;;;;;;;;;38.00;33.00;;;;;;;;5034913;28;46189;-82
2022/11/12 00:14:50;;;;;;;;;39.00;32.00;;;;;;;;5036886;28;45284;-81
2022/11/12 00:17:15;;;;;;;;;36.67;33.67;;;;;;;;5036618;28;45390;-82
2022/11/12 00:19:40;;;;;;;;;38.00;32.67;;;;;;;;5036072;28;45365;-81
2022/11/12 00:22:06;;;;;;;;;39.33;33.00;;;;;;;;5035030;28;46306;-81
2022/11/12 00:24:31;;;;;;;;;31.67;29.33;;;;;;;;5038186;28;45460;-81
2022/11/12 00:26:56;;;;;;;;;37.00;31.33;;;;;;;;5038991;28;47020;-81
2022/11/12 00:29:22;;;;;;;;;39.00;32.67;;;;;;;;5035793;28;45450;-82
2022/11/12 00:31:47;;;;;;;;;45.33;34.33;;;;;;;;5038647;28;45954;-81
2022/11/12 00:34:12;;;;;;;;;45.67;34.00;;;;;;;;5037787;28;45590;-82
2022/11/12 00:36:38;;;;;;;;;35.67;30.33;;;;;;;;5036414;28;45307;-82
2022/11/12 00:39:03;;;;;;;;;36.33;31.33;;;;;;;;5035167;28;45416;-82
2022/11/12 00:41:28;;;;;;;;;40.33;34.67;;;;;;;;5029515;28;45735;-81
2022/11/12 00:43:54;;;;;;;;;40.67;35.33;;;;;;;;5046197;28;45576;-81
2022/11/12 00:46:19;;;;;;;;;39.00;32.67;;;;;;;;5037641;28;45513;-81
2022/11/12 00:48:44;;;;;;;;;40.00;32.00;;;;;;;;5045781;28;45646;-81
2022/11/12 00:51:09;;;;;;;;;41.00;33.00;;;;;;;;5028256;28;45972;-81
2022/11/12 00:53:35;;;;;;;;;38.33;33.67;;;;;;;;5035513;28;45425;-82
2022/11/12 00:56:01;;;;;;;;;33.67;30.33;;;;;;;;5035078;28;45410;-81
2022/11/12 00:58:30;;;;;;;;;37.67;32.33;;;;;;;;5034259;28;45548;-81
2022/11/12 01:00:56;;;;;;;;;40.33;32.33;;;;;;;;5037881;28;45469;-81
2022/11/12 01:03:21;;;;;;;;;39.33;33.00;;;;;;;;5034825;28;45581;-82
2022/11/12 01:05:47;;;;;;;;;37.00;32.00;;;;;;;;5047299;28;45337;-81
2022/11/12 01:08:12;;;;;;;;;37.00;31.00;;;;;;;;5038407;28;45693;-81
2022/11/12 01:10:37;;;;;;;;;29.67;29.67;;;;;;;;5043739;28;46964;-81
2022/11/12 01:13:05;;;;;;;;;28.33;27.00;;;;;;;;5041313;28;45453;-81
2022/11/12 01:15:31;;;;;;;;;33.33;28.33;;;;;;;;5046108;28;46812;-73
2022/11/12 01:17:57;;;;;;;;;34.33;30.00;;;;;;;;5041624;28;45449;-72
2022/11/12 01:20:22;;;;;;;;;29.00;24.67;;;;;;;;5037312;28;45329;-73
2022/11/12 01:22:47;;;;;;;;;31.67;30.67;;;;;;;;5027162;28;45813;-73
2022/11/12 01:25:12;;;;;;;;;36.67;32.00;;;;;;;;5050744;28;45450;-73
2022/11/12 01:27:38;;;;;;;;;33.00;30.00;;;;;;;;5038595;28;45261;-73
2022/11/12 01:30:04;;;;;;;;;37.33;31.67;;;;;;;;5046400;28;45785;-73
2022/11/12 01:32:32;;;;;;;;;35.00;32.00;;;;;;;;5041524;28;45333;-73
2022/11/12 01:34:58;;;;;;;;;35.33;31.33;;;;;;;;5044935;28;45398;-73
2022/11/12 01:37:23;;;;;;;;;35.00;30.33;;;;;;;;5038068;28;45388;-72
2022/11/12 01:39:48;;;;;;;;;28.33;26.67;;;;;;;;5046404;28;45621;-73
2022/11/12 01:42:13;;;;;;;;;34.33;30.00;;;;;;;;5035743;28;45497;-73
2022/11/12 01:44:41;;;;;;;;;33.67;29.67;;;;;;;;5041858;28;45464;-73
2022/11/12 01:47:09;;;;;;;;;33.00;30.00;;;;;;;;5040056;28;45476;-72
2022/11/12 01:49:43;;;;;;;;;36.33;32.00;;;;;;;;5038998;28;45590;-73
2022/11/12 01:52:11;;;;;;;;;32.33;28.67;;;;;;;;5039522;28;45386;-73
2022/11/12 01:54:37;;;;;;;;;34.67;30.67;;;;;;;;5037519;28;45391;-73
2022/11/12 01:57:02;;;;;;;;;40.33;33.00;;;;;;;;5031773;28;45521;-72
2022/11/12 01:59:32;;;;;;;;;35.67;32.00;;;;;;;;5038635;28;45805;-72
2022/11/12 02:01:58;;;;;;;;;35.00;31.67;;;;;;;;5019369;28;45796;-73
2022/11/12 02:04:25;;;;;;;;;38.00;33.33;;;;;;;;5027587;28;45470;-73
2022/11/12 02:06:51;;;;;;;;;36.00;32.00;;;;;;;;5037457;28;45490;-73
2022/11/12 02:09:16;;;;;;;;;38.33;31.33;;;;;;;;5037003;28;45331;-73
2022/11/12 02:11:42;;;;;;;;;37.00;30.00;;;;;;;;5033224;28;45375;-73
2022/11/12 02:14:08;;;;;;;;;36.33;32.00;;;;;;;;5037629;28;45555;-73
2022/11/12 02:16:35;;;;;;;;;36.33;30.33;;;;;;;;5040262;28;45434;-72
2022/11/12 02:19:00;;;;;;;;;29.67;29.33;;;;;;;;5037127;28;45495;-73
2022/11/12 02:21:27;;;;;;;;;33.67;29.67;;;;;;;;5018823;28;45910;-73
2022/11/12 02:23:58;;;;;;;;;33.33;30.00;;;;;;;;5044770;28;45386;-73
2022/11/12 02:26:25;;;;;;;;;34.00;30.00;;;;;;;;5020251;28;45487;-72
2022/11/12 02:28:50;;;;;;;;;30.00;26.67;;;;;;;;5018787;28;46912;-73
2022/11/12 02:31:15;;;;;;;;;32.00;28.00;;;;;;;;5038970;28;45366;-73
2022/11/12 02:33:40;;;;;;;;;35.67;30.00;;;;;;;;5036784;28;45688;-73
2022/11/12 02:36:06;;;;;;;;;27.33;26.33;;;;;;;;5045098;28;45721;-73
2022/11/12 02:38:31;;;;;;;;;27.67;26.67;;;;;;;;5037244;28;45445;-73
2022/11/12 02:40:56;;;;;;;;;33.33;27.33;;;;;;;;5033037;28;45247;-73
2022/11/12 02:43:21;;;;;;;;;34.67;30.00;;;;;;;;5045776;28;45460;-73
2022/11/12 02:45:47;;;;;;;;;30.33;30.00;;;;;;;;5046027;28;45527;-73
2022/11/12 02:48:12;;;;;;;;;27.33;26.67;;;;;;;;5020691;28;46286;-73
2022/11/12 02:50:38;;;;;;;;;30.67;29.00;;;;;;;;5025574;28;45417;-73
2022/11/12 02:53:03;;;;;;;;;30.33;27.00;;;;;;;;5028850;28;45446;-73
2022/11/12 02:55:28;;;;;;;;;31.33;28.33;;;;;;;;5019716;28;45410;-73
2022/11/12 02:57:56;;;;;;;;;29.00;29.00;;;;;;;;5035765;28;46344;-73
2022/11/12 03:00:21;;;;;;;;;27.33;25.33;;;;;;;;5014589;28;45790;-73
2022/11/12 03:02:57;;;;;;;;;31.67;29.33;;;;;;;;5030412;28;45540;-73
2022/11/12 03:05:23;;;;;;;;;26.67;25.67;;;;;;;;5045063;28;45506;-73
2022/11/12 03:07:48;;;;;;;;;35.67;30.00;;;;;;;;5035980;28;45443;-73
2022/11/12 03:10:13;;;;;;;;;34.67;30.00;;;;;;;;5041107;28;47225;-73
2022/11/12 03:12:38;;;;;;;;;31.00;29.33;;;;;;;;5038429;28;45546;-73
2022/11/12 03:15:04;;;;;;;;;35.00;29.00;;;;;;;;5025590;28;45351;-80
2022/11/12 03:17:29;;;;;;;;;32.00;29.33;;;;;;;;5039890;28;45436;-81
2022/11/12 03:19:55;;;;;;;;;33.33;29.33;;;;;;;;5022797;28;45681;-81
2022/11/12 03:22:20;;;;;;;;;29.00;28.33;;;;;;;;5018319;28;45977;-74
2022/11/12 03:24:46;;;;;;;;;33.00;30.00;;;;;;;;5028461;28;45469;-81
2022/11/12 03:27:11;;;;;;;;;32.33;27.67;;;;;;;;5019574;28;45522;-81
2022/11/12 03:29:36;;;;;;;;;33.67;30.00;;;;;;;;5036231;28;45651;-81
2022/11/12 03:32:01;;;;;;;;;37.67;30.00;;;;;;;;5036572;28;45395;-81
2022/11/12 03:34:27;;;;;;;;;29.00;27.00;;;;;;;;5045605;28;45518;-81
2022/11/12 03:36:52;;;;;;;;;31.33;30.00;;;;;;;;5001111;28;47639;-81
2022/11/12 03:39:17;;;;;;;;;33.67;30.33;;;;;;;;5031044;28;45485;-81
2022/11/12 03:41:42;;;;;;;;;33.00;29.67;;;;;;;;5039478;28;45430;-80
2022/11/12 03:44:08;;;;;;;;;30.33;27.67;;;;;;;;5037491;28;45514;-81
2022/11/12 03:46:33;;;;;;;;;29.67;27.67;;;;;;;;5024468;28;45666;-81
2022/11/12 03:49:01;;;;;;;;;28.33;28.33;;;;;;;;5013546;28;45943;-81
2022/11/12 03:51:26;;;;;;;;;30.33;25.00;;;;;;;;5040755;28;45523;-81
2022/11/12 03:53:51;;;;;;;;;28.67;27.33;;;;;;;;5037060;28;45702;-81
2022/11/12 03:56:17;;;;;;;;;21.67;20.00;;;;;;;;5020166;28;45978;-81
2022/11/12 03:58:42;;;;;;;;;25.67;23.00;;;;;;;;5021882;28;45450;-80
2022/11/12 04:01:07;;;;;;;;;26.67;26.33;;;;;;;;5035854;28;46882;-81
2022/11/12 04:03:33;;;;;;;;;30.00;25.67;;;;;;;;5017891;28;45589;-81
2022/11/12 04:08:42;;;;;;;;;24.33;22.67;;;;;;;;5035048;28;45557;-81
2022/11/12 04:11:07;;;;;;;;;24.00;24.00;;;;;;;;5015470;28;45486;-81
2022/11/12 04:13:32;;;;;;;;;24.00;22.67;;;;;;;;5044810;28;45490;-80
2022/11/12 04:21:50;;;;;;;;;23.67;22.33;;;;;;;;5034953;28;45511;-80
2022/11/12 04:27:04;;;;;;;;;27.33;23.00;;;;;;;;5036404;28;45829;-80
2022/11/12 04:32:14;;;;;;;;;28.00;22.67;;;;;;;;5036518;28;45574;-80
2022/11/12 04:34:39;;;;;;;;;22.00;21.67;;;;;;;;5028500;28;45546;-80
2022/11/12 04:37:04;;;;;;;;;19.33;18.00;;;;;;;;5017505;28;47349;-80
2022/11/12 04:39:30;;;;;;;;;20.00;17.00;;;;;;;;5037740;28;45421;-79
2022/11/12 04:47:23;;;;;;;;;21.33;17.00;;;;;;;;5024330;28;45330;-80
2022/11/12 04:49:48;;;;;;;;;21.67;19.33;;;;;;;;5050687;28;45342;-80
2022/11/12 04:52:14;;;;;;;;;20.67;17.67;;;;;;;;5039880;28;45560;-80
2022/11/12 04:54:39;;;;;;;;;23.00;20.33;;;;;;;;5044837;28;45375;-80
2022/11/12 04:57:05;;;;;;;;;21.67;20.00;;;;;;;;5038873;28;46096;-80
2022/11/12 04:59:30;;;;;;;;;24.67;20.67;;;;;;;;5046510;28;45266;-80
2022/11/12 05:01:55;;;;;;;;;17.67;17.00;;;;;;;;5046024;28;45664;-80
2022/11/12 05:04:21;;;;;;;;;18.33;15.67;;;;;;;;5042337;28;45632;-80
2022/11/12 05:06:52;;;;;;;;;21.00;20.00;;;;;;;;5041231;28;46707;-80
2022/11/12 05:09:22;;;;;;;;;18.00;18.00;;;;;;;;5040073;28;45598;-80
2022/11/12 05:11:47;;;;;;;;;22.67;18.33;;;;;;;;5032811;28;45889;-79
2022/11/12 05:14:13;;;;;;;;;20.67;19.00;;;;;;;;5004114;28;45550;-73
2022/11/12 05:16:38;;;;;;;;;19.67;19.33;;;;;;;;5045679;28;45550;-73
2022/11/12 05:19:04;;;;;;;;;20.67;18.33;;;;;;;;5024916;28;45416;-73
2022/11/12 05:24:13;;;;;;;;;17.00;17.00;;;;;;;;5044752;28;45371;-73
2022/11/12 05:26:38;;;;;;;;;18.67;18.00;;;;;;;;5040116;28;45458;-73
2022/11/12 05:29:04;;;;;;;;;22.67;18.67;;;;;;;;5037733;28;45709;-73
2022/11/12 05:31:29;;;;;;;;;19.67;19.67;;;;;;;;5045603;28;45370;-73
2022/11/12 05:33:55;;;;;;;;;22.33;19.67;;;;;;;;5043234;28;45584;-73
2022/11/12 05:36:20;;;;;;;;;17.33;17.33;;;;;;;;5019507;28;48114;-73
2022/11/12 05:38:46;;;;;;;;;19.67;17.67;;;;;;;;5037658;28;45541;-73
2022/11/12 05:41:11;;;;;;;;;22.00;18.33;;;;;;;;5032925;28;45346;-73
2022/11/12 05:43:36;;;;;;;;;19.00;17.00;;;;;;;;5039247;28;45374;-73
2022/11/12 05:46:02;;;;;;;;;19.33;18.00;;;;;;;;5038689;28;46049;-73
2022/11/12 05:48:28;;;;;;;;;20.67;19.33;;;;;;;;5046223;28;45577;-73
2022/11/12 05:50:53;;;;;;;;;18.33;17.33;;;;;;;;5040987;28;45319;-73
2022/11/12 05:53:18;;;;;;;;;21.33;19.33;;;;;;;;5025670;28;45718;-73
2022/11/12 05:55:44;;;;;;;;;22.00;19.33;;;;;;;;5019558;28;47245;-73
2022/11/12 05:58:09;;;;;;;;;18.00;17.00;;;;;;;;5043864;28;45401;-73
2022/11/12 06:00:41;;;;;;;;;23.33;19.33;;;;;;;;5040783;28;45314;-73
2022/11/12 06:03:07;;;;;;;;;17.00;15.67;;;;;;;;5042122;28;45416;-73
2022/11/12 06:05:33;;;;;;;;;17.00;14.00;;;;;;;;5043926;28;46097;-73
2022/11/12 06:07:58;;;;;;;;;18.33;16.00;;;;;;;;5042360;28;45810;-73
2022/11/12 06:10:24;;;;;;;;;18.00;18.00;;;;;;;;5035529;28;45437;-73
2022/11/12 06:12:49;;;;;;;;;15.33;14.00;;;;;;;;5046663;28;45859;-76
2022/11/12 06:15:15;;;;;;;;;19.33;17.00;;;;;;;;5040436;28;47167;-73
2022/11/12 06:17:40;;;;;;;;;18.00;14.67;;;;;;;;5023598;28;46545;-73
2022/11/12 06:20:06;;;;;;;;;15.67;14.33;;;;;;;;5039736;28;45431;-73
2022/11/12 06:22:31;;;;;;;;;22.33;18.33;;;;;;;;5042885;28;45492;-73
2022/11/12 06:24:56;;;;;;;;;14.33;14.00;;;;;;;;5042521;28;47459;-72
2022/11/12 06:27:22;;;;;;;;;18.33;16.67;;;;;;;;5039168;28;45716;-73
2022/11/12 06:29:48;;;;;;;;;21.00;20.00;;;;;;;;5040162;28;45724;-73
2022/11/12 06:32:13;;;;;;;;;14.00;12.67;;;;;;;;5042238;28;45500;-73
2022/11/12 06:34:38;;;;;;;;;17.33;15.33;;;;;;;;5042987;28;45630;-73
2022/11/12 06:37:04;;;;;;;;;18.00;16.00;;;;;;;;5041635;28;45361;-72
2022/11/12 06:39:29;;;;;;;;;16.67;16.00;;;;;;;;5036779;28;45602;-72
2022/11/12 06:41:54;;;;;;;;;14.33;13.67;;;;;;;;5017043;28;45466;-73
2022/11/12 06:44:19;;;;;;;;;15.00;14.00;;;;;;;;5047299;28;45389;-73
2022/11/12 06:46:44;;;;;;;;;17.00;16.00;;;;;;;;5026801;28;45713;-73
2022/11/12 06:49:10;;;;;;;;;20.33;16.67;;;;;;;;5043624;28;45438;-73
2022/11/12 06:51:35;;;;;;;;;15.00;13.67;;;;;;;;5025447;28;45390;-72
2022/11/12 06:54:00;;;;;;;;;16.67;14.33;;;;;;;;5031014;28;46495;-73
2022/11/12 06:56:25;;;;;;;;;17.67;15.33;;;;;;;;5016284;28;46353;-73
2022/11/12 06:58:51;;;;;;;;;18.67;17.33;;;;;;;;5037576;28;45311;-73
2022/11/12 07:01:16;;;;;;;;;15.00;15.00;;;;;;;;5046698;28;45464;-73
2022/11/12 07:03:42;;;;;;;;;17.33;16.00;;;;;;;;5035964;28;47074;-73
2022/11/12 07:06:10;;;;;;;;;18.67;16.00;;;;;;;;5036292;28;45334;-73
2022/11/12 07:08:35;;;;;;;;;18.33;17.00;;;;;;;;5043434;28;45639;-72
2022/11/12 07:11:01;;;;;;;;;21.00;18.33;;;;;;;;5036560;28;45445;-73
2022/11/12 07:13:28;;;;;;;;;17.67;13.67;;;;;;;;5036134;28;46100;-73
2022/11/12 07:15:55;;;;;;;;;17.00;17.00;;;;;;;;5040330;28;45547;-73
2022/11/12 07:18:20;;;;;;;;;18.67;16.00;;;;;;;;5044274;28;45493;-73
2022/11/12 07:20:45;;;;;;;;;17.00;15.67;;;;;;;;5042440;28;45687;-73
2022/11/12 07:23:11;;;;;;;;;22.00;16.00;;;;;;;;5038296;28;45628;-73
2022/11/12 07:25:36;;;;;;;;;18.33;17.33;;;;;;;;5048064;28;45459;-73
2022/11/12 07:28:01;;;;;;;;;15.00;15.00;;;;;;;;5046103;28;46765;-73
2022/11/12 07:30:26;;;;;;;;;19.00;16.67;;;;;;;;5024571;28;45417;-73
2022/11/12 07:32:51;;;;;;;;;18.00;16.00;;;;;;;;5040378;28;46662;-73
2022/11/12 07:35:17;;;;;;;;;17.00;15.00;;;;;;;;5019891;28;45691;-73
2022/11/12 07:37:42;;;;;;;;;19.00;15.67;;;;;;;;5041841;28;45504;-73
2022/11/12 07:40:07;;;;;;;;;19.67;16.33;;;;;;;;5035910;28;45329;-73
2022/11/12 07:42:33;;;;;;;;;18.67;18.33;;;;;;;;5015670;28;45550;-75
2022/11/12 07:44:58;;;;;;;;;21.00;19.67;;;;;;;;5045487;28;45506;-75
2022/11/12 07:47:23;;;;;;;;;16.33;16.33;;;;;;;;5002881;28;45871;-75
2022/11/12 07:49:49;;;;;;;;;23.00;21.00;;;;;;;;5020942;28;45569;-75
2022/11/12 07:52:14;;;;;;;;;15.67;13.33;;;;;;;;5039100;28;46720;-75
2022/11/12 07:54:39;;;;;;;;;19.67;17.00;;;;;;;;5038267;28;45598;-75
2022/11/12 07:57:04;;;;;;;;;18.33;17.00;;;;;;;;5036545;28;45413;-75
2022/11/12 07:59:29;;;;;;;;;25.00;22.00;;;;;;;;5047737;28;45638;-75
2022/11/12 08:01:55;;;;;;;;;22.67;20.00;;;;;;;;5039315;28;46199;-75
2022/11/12 08:04:20;;;;;;;;;19.00;15.33;;;;;;;;5024950;28;45450;-75
2022/11/12 08:06:45;;;;;;;;;20.33;18.00;;;;;;;;5022563;28;45449;-75
2022/11/12 08:09:10;;;;;;;;;23.33;21.00;;;;;;;;5043771;28;45452;-75
2022/11/12 08:11:36;;;;;;;;;19.00;18.00;;;;;;;;5033863;28;46099;-75
2022/11/12 08:14:01;;;;;;;;;18.33;17.33;;;;;;;;5045968;28;45327;-83
2022/11/12 08:16:27;;;;;;;;;29.33;26.33;;;;;;;;5042228;28;45832;-83
2022/11/12 08:18:52;;;;;;;;;33.67;30.00;;;;;;;;5049727;28;45610;-80
2022/11/12 08:21:17;;;;;;;;;27.00;24.00;;;;;;;;5039063;28;45991;-82
2022/11/12 08:23:43;;;;;;;;;17.33;16.00;;;;;;;;5041858;28;45431;-78
2022/11/12 08:26:11;;;;;;;;;32.33;30.67;;;;;;;;5043741;28;46912;-85
2022/11/12 08:28:36;;;;;;;;;29.67;26.67;;;;;;;;5047303;28;45487;-89
2022/11/12 08:31:05;;;;;;;;;23.33;23.00;;;;;;;;5044903;28;46611;-77
2022/11/12 08:33:31;;;;;;;;;26.67;20.67;;;;;;;;5042383;28;45535;-82
2022/11/12 08:35:56;;;;;;;;;22.33;21.00;;;;;;;;5021648;28;45370;-78
2022/11/12 08:38:21;;;;;;;;;24.00;20.00;;;;;;;;5042282;28;45295;-77
2022/11/12 08:40:46;;;;;;;;;27.67;27.67;;;;;;;;5024668;28;46107;-81
2022/11/12 08:43:12;;;;;;;;;25.33;23.00;;;;;;;;5048733;28;45285;-82
2022/11/12 08:45:39;;;;;;;;;22.33;21.33;;;;;;;;5044982;28;45320;-78
2022/11/12 08:48:05;;;;;;;;;21.67;20.33;;;;;;;;5022062;28;45827;-77
2022/11/12 08:50:31;;;;;;;;;22.00;17.33;;;;;;;;5048180;28;46778;-81
2022/11/12 08:53:00;;;;;;;;;14.67;14.67;;;;;;;;5046017;28;45658;-83
2022/11/12 08:55:26;;;;;;;;;22.00;21.33;;;;;;;;5040425;28;45461;-86
2022/11/12 08:57:51;;;;;;;;;20.33;20.33;;;;;;;;5038608;28;45610;-76
2022/11/12 09:00:16;;;;;;;;;25.33;23.00;;;;;;;;5037507;28;46241;-78
2022/11/12 09:02:41;;;;;;;;;24.33;21.33;;;;;;;;5024119;28;45797;-77
2022/11/12 09:05:07;;;;;;;;;22.67;20.00;;;;;;;;5037770;28;45655;-77
2022/11/12 09:07:32;;;;;;;;;20.67;20.67;;;;;;;;5042856;28;45501;-78
2022/11/12 09:09:57;;;;;;;;;22.67;19.67;;;;;;;;5041254;28;45408;-79
2022/11/12 09:12:23;;;;;;;;;21.33;20.33;;;;;;;;5017468;28;45374;-78
2022/11/12 09:14:48;;;;;;;;;17.33;15.00;;;;;;;;5043353;28;45531;-78
2022/11/12 09:17:13;;;;;;;;;27.00;22.33;;;;;;;;5038170;28;45770;-78
2022/11/12 09:19:39;;;;;;;;;14.67;14.67;;;;;;;;5041932;28;45539;-78
2022/11/12 09:22:04;;;;;;;;;20.33;18.00;;;;;;;;5025721;28;45676;-78
2022/11/12 09:24:29;;;;;;;;;21.00;19.33;;;;;;;;5017611;28;45726;-78
2022/11/12 09:26:54;;;;;;;;;21.67;19.33;;;;;;;;5041579;28;45477;-78
2022/11/12 09:29:20;;;;;;;;;23.67;23.00;;;;;;;;5045436;28;46213;-78
2022/11/12 09:31:45;;;;;;;;;19.00;18.33;;;;;;;;5037971;28;45481;-77
2022/11/12 09:34:10;;;;;;;;;25.33;19.67;;;;;;;;5035629;28;45561;-78
2022/11/12 09:36:36;;;;;;;;;24.00;18.33;;;;;;;;5050203;28;45452;-80
2022/11/12 09:39:01;;;;;;;;;21.00;21.00;;;;;;;;5049175;28;45905;-82
2022/11/12 09:41:36;;;;;;;;;19.00;19.00;;;;;;;;5037855;28;46101;-81
2022/11/12 09:44:14;;;;;;;;;24.33;21.00;;;;;;;;5036506;28;45539;-77
2022/11/12 09:46:44;;;;;;;;;16.33;13.67;;;;;;;;5038918;28;45472;-80
2022/11/12 09:49:22;;;;;;;;;23.67;20.67;;;;;;;;5031968;28;46314;-78
2022/11/12 09:51:49;;;;;;;;;18.33;18.33;;;;;;;;5036295;28;45632;-86
2022/11/12 09:54:18;;;;;;;;;20.00;18.67;;;;;;;;5039294;28;45284;-87
2022/11/12 09:56:43;;;;;;;;;19.67;18.67;;;;;;;;5033084;28;45622;-86
2022/11/12 09:59:12;;;;;;;;;18.33;18.33;;;;;;;;5037281;28;46313;-78
2022/11/12 10:01:56;;;;;;;;;21.67;18.00;;;;;;;;5031968;28;46155;-80
2022/11/12 10:04:21;;;;;;;;;22.00;21.00;;;;;;;;5039239;28;45481;-80
2022/11/12 10:07:00;;;;;;;;;23.00;19.00;;;;;;;;5045067;28;45373;-81
2022/11/12 10:09:38;;;;;;;;;23.67;18.00;;;;;;;;5035181;28;46294;-79
2022/11/12 10:14:53;;;;;;;;;25.67;21.67;;;;;;;;5047343;28;45519;-81
2022/11/12 10:17:27;;;;;;;;;19.00;17.33;;;;;;;;5040977;28;45490;-79
2022/11/12 10:20:11;;;;;;;;;21.33;18.00;;;;;;;;5047428;28;45575;-80
2022/11/12 10:22:45;;;;;;;;;17.00;16.67;;;;;;;;5039648;28;45478;-88
2022/11/12 10:25:15;;;;;;;;;17.00;16.00;;;;;;;;5038650;28;45741;-73
2022/11/12 10:27:41;;;;;;;;;18.00;18.00;;;;;;;;5043566;28;45853;-74
2022/11/12 10:30:13;;;;;;;;;19.33;18.00;;;;;;;;5038982;28;45749;-73
2022/11/12 10:32:41;;;;;;;;;17.67;14.67;;;;;;;;5035863;28;45444;-72
2022/11/12 10:35:06;;;;;;;;;18.67;17.33;;;;;;;;5036716;28;45484;-72
2022/11/12 10:37:40;;;;;;;;;19.33;14.67;;;;;;;;5036688;28;45684;-73
2022/11/12 10:40:21;;;;;;;;;17.67;17.67;;;;;;;;5039022;28;45744;-74
2022/11/12 10:42:59;;;;;;;;;18.33;17.33;;;;;;;;5037954;28;45573;-73
2022/11/12 10:45:24;;;;;;;;;22.33;19.33;;;;;;;;5035166;28;45315;-75
2022/11/12 10:47:50;;;;;;;;;22.00;20.00;;;;;;;;5030420;28;45385;-74
2022/11/12 10:50:24;;;;;;;;;19.33;18.33;;;;;;;;5048905;28;45592;-73
2022/11/12 10:53:02;;;;;;;;;21.00;19.67;;;;;;;;5041292;28;45404;-73
2022/11/12 10:55:27;;;;;;;;;20.67;18.67;;;;;;;;5026609;28;45511;-73
2022/11/12 10:58:05;;;;;;;;;20.33;18.67;;;;;;;;5026629;28;45519;-74
2022/11/12 11:00:30;;;;;;;;;18.33;18.00;;;;;;;;5041003;28;45469;-73
2022/11/12 11:02:55;;;;;;;;;23.00;18.67;;;;;;;;5043855;28;45445;-74
2022/11/12 11:05:23;;;;;;;;;22.00;18.33;;;;;;;;5037703;28;45547;-74
2022/11/12 11:07:49;;;;;;;;;19.67;18.00;;;;;;;;5041810;28;45362;-75
2022/11/12 11:10:24;;;;;;;;;19.00;19.00;;;;;;;;5052326;28;45492;-75
2022/11/12 11:13:07;;;;;;;;;19.67;18.00;;;;;;;;5035154;28;45454;-72
2022/11/12 11:15:32;;;;;;;;;18.67;15.00;;;;;;;;5032905;28;45472;-85
2022/11/12 11:17:57;;;;;;;;;18.67;18.67;;;;;;;;5043718;28;45508;-87
2022/11/12 11:20:26;;;;;;;;;25.50;23.00;;;;;;;;5039137;28;45926;-85
2022/11/12 11:22:55;;;;;;;;;24.00;19.33;;;;;;;;5051659;28;45489;-83
2022/11/12 11:25:27;;;;;;;;;25.33;20.33;;;;;;;;5040830;28;45425;-82
2022/11/12 11:28:13;;;;;;;;;24.33;21.33;;;;;;;;5042550;28;45514;-82
2022/11/12 11:30:45;;;;;;;;;19.33;19.33;;;;;;;;5052013;28;46652;-83
2022/11/12 11:33:10;;;;;;;;;19.00;18.33;;;;;;;;5039336;28;45408;-82
2022/11/12 11:35:47;;;;;;;;;25.67;23.00;;;;;;;;5037177;28;45325;-85
2022/11/12 11:38:24;;;;;;;;;26.33;23.00;;;;;;;;5040197;28;45371;-82
2022/11/12 11:41:04;;;;;;;;;24.67;23.00;;;;;;;;5013376;28;45983;-83
2022/11/12 11:43:37;;;;;;;;;21.67;21.00;;;;;;;;5046081;28;45425;-86
2022/11/12 11:46:06;;;;;;;;;21.67;21.33;;;;;;;;5041382;28;45470;-86
2022/11/12 11:48:37;;;;;;;;;28.00;24.67;;;;;;;;5038644;28;45547;-85
2022/11/12 11:51:11;;;;;;;;;22.67;20.67;;;;;;;;5049136;28;46693;-86
2022/11/12 11:53:43;;;;;;;;;20.50;20.50;;;;;;;;5047046;28;45579;-83
2022/11/12 11:56:17;;;;;;;;;21.67;21.33;;;;;;;;5039897;28;45419;-86
2022/11/12 11:58:57;;;;;;;;;22.00;20.67;;;;;;;;5033080;28;45343;-85
2022/11/12 12:01:22;;;;;;;;;27.67;25.00;;;;;;;;5046681;28;45472;-86
2022/11/12 12:04:00;;;;;;;;;27.67;24.67;;;;;;;;5047192;28;45555;-85
2022/11/12 12:06:27;;;;;;;;;28.00;26.00;;;;;;;;5021605;28;45379;-78
2022/11/12 12:09:11;;;;;;;;;21.67;21.33;;;;;;;;5049951;28;45511;-83
2022/11/12 12:11:36;;;;;;;;;24.67;23.33;;;;;;;;5029485;28;46234;-82
2022/11/12 12:14:02;;;;;;;;;21.33;19.67;;;;;;;;5038552;28;45566;-85
2022/11/12 12:16:36;;;;;;;;;33.33;23.33;;;;;;;;5039035;28;45633;-77
2022/11/12 12:19:17;;;;;;;;;28.00;24.00;;;;;;;;5044996;28;45471;-85
2022/11/12 12:21:46;;;;;;;;;27.67;25.67;;;;;;;;5046299;28;45508;-85
2022/11/12 12:24:18;;;;;;;;;34.33;26.67;;;;;;;;5052155;28;45456;-82
2022/11/12 12:26:52;;;;;;;;;30.67;27.00;;;;;;;;5005595;28;45287;-84
2022/11/12 12:29:27;;;;;;;;;17.67;15.67;;;;;;;;5029346;28;45481;-86
2022/11/12 12:31:58;;;;;;;;;28.00;24.67;;;;;;;;5015686;28;47872;-84
2022/11/12 12:34:37;;;;;;;;;26.67;23.33;;;;;;;;5017038;28;45473;-84
2022/11/12 12:37:17;;;;;;;;;29.00;26.67;;;;;;;;5004106;28;45318;-82
2022/11/12 12:39:52;;;;;;;;;30.67;28.00;;;;;;;;5021503;28;45555;-81
2022/11/12 12:42:21;;;;;;;;;25.67;22.67;;;;;;;;5031235;28;46203;-81
2022/11/12 12:45:00;;;;;;;;;28.00;26.33;;;;;;;;5041220;28;45600;-85
2022/11/12 12:47:26;;;;;;;;;30.67;27.33;;;;;;;;5032088;28;45552;-85
2022/11/12 12:49:52;;;;;;;;;33.00;29.67;;;;;;;;5019375;28;45565;-80
2022/11/12 12:52:17;;;;;;;;;29.00;26.00;;;;;;;;5018731;28;46194;-83
2022/11/12 12:54:49;;;;;;;;;24.33;24.33;;;;;;;;5034942;28;45496;-79
2022/11/12 12:57:33;;;;;;;;;24.67;24.67;;;;;;;;5035603;28;45569;-82
2022/11/12 13:00:17;;;;;;;;;27.67;24.33;;;;;;;;5036141;28;45224;-79
2022/11/12 13:02:42;;;;;;;;;32.00;28.67;;;;;;;;5020595;28;47313;-84
2022/11/12 13:05:26;;;;;;;;;20.67;19.00;;;;;;;;5040735;28;45402;-83
2022/11/12 13:07:52;;;;;;;;;25.33;22.67;;;;;;;;5037139;28;45400;-84
2022/11/12 13:10:32;;;;;;;;;25.67;25.67;;;;;;;;5018202;28;45542;-86
2022/11/12 13:13:16;;;;;;;;;24.67;23.67;;;;;;;;5037932;28;46478;-80
2022/11/12 13:15:45;;;;;;;;;27.00;25.67;;;;;;;;5035909;28;45461;-84
2022/11/12 13:18:10;;;;;;;;;26.33;23.33;;;;;;;;5038409;28;46524;-79
2022/11/12 13:20:37;;;;;;;;;24.67;22.67;;;;;;;;5020006;28;45645;-81
2022/11/12 13:23:04;;;;;;;;;24.67;23.00;;;;;;;;5038720;28;45427;-84
2022/11/12 13:25:30;;;;;;;;;25.67;25.00;;;;;;;;5034129;28;45499;-80
2022/11/12 13:28:02;;;;;;;;;20.00;19.33;;;;;;;;5038240;28;45576;-80
2022/11/12 13:30:27;;;;;;;;;22.67;21.67;;;;;;;;5039121;28;45621;-80
2022/11/12 13:32:56;;;;;;;;;26.67;23.00;;;;;;;;5042649;28;46268;-80
2022/11/12 13:35:26;;;;;;;;;27.00;26.00;;;;;;;;5020725;28;45291;-80
2022/11/12 13:37:57;;;;;;;;;24.00;24.00;;;;;;;;5039577;28;45451;-80
2022/11/12 13:40:28;;;;;;;;;28.67;24.67;;;;;;;;5039135;28;45866;-78
2022/11/12 13:42:55;;;;;;;;;22.67;22.00;;;;;;;;5040179;28;45342;-77
2022/11/12 13:45:22;;;;;;;;;26.33;23.33;;;;;;;;5049029;28;45836;-80
2022/11/12 13:47:47;;;;;;;;;28.00;27.00;;;;;;;;5044281;28;45900;-81
2022/11/12 13:50:15;;;;;;;;;22.33;22.33;;;;;;;;5036080;28;45442;-79
2022/11/12 13:52:41;;;;;;;;;30.50;24.00;;;;;;;;5030386;28;47161;-80
2022/11/12 13:55:11;;;;;;;;;30.00;27.67;;;;;;;;5037176;28;45326;-82
2022/11/12 13:57:36;;;;;;;;;29.00;26.67;;;;;;;;5054644;28;45365;-80
2022/11/12 14:00:08;;;;;;;;;26.33;24.67;;;;;;;;5051724;28;45545;-78
2022/11/12 14:02:35;;;;;;;;;33.67;27.00;;;;;;;;5048978;28;46657;-77
2022/11/12 14:05:00;;;;;;;;;27.67;27.00;;;;;;;;5053473;28;45395;-76
2022/11/12 14:07:26;;;;;;;;;28.67;26.00;;;;;;;;5056657;28;45672;-74
2022/11/12 14:09:54;;;;;;;;;30.00;23.33;;;;;;;;5020668;28;45864;-76
2022/11/12 14:12:38;;;;;;;;;24.67;24.67;;;;;;;;5043622;28;45988;-75
2022/11/12 14:15:17;;;;;;;;;28.00;27.00;;;;;;;;5032949;28;45556;-75
2022/11/12 14:17:45;;;;;;;;;33.00;28.00;;;;;;;;5043449;28;45570;-77
2022/11/12 14:20:17;;;;;;;;;30.33;28.67;;;;;;;;5039536;28;45557;-74
2022/11/12 14:22:43;;;;;;;;;28.67;25.00;;;;;;;;5052032;28;46097;-72
2022/11/12 14:25:12;;;;;;;;;29.67;26.67;;;;;;;;5053033;28;45602;-72
2022/11/12 14:27:37;;;;;;;;;32.33;29.33;;;;;;;;5043576;28;45887;-72
2022/11/12 14:30:16;;;;;;;;;28.00;26.00;;;;;;;;5040821;28;45331;-72
2022/11/12 14:32:43;;;;;;;;;31.00;29.00;;;;;;;;5049603;28;46372;-73
2022/11/12 14:35:23;;;;;;;;;34.33;26.00;;;;;;;;5048456;28;45331;-71
2022/11/12 14:37:54;;;;;;;;;30.00;28.00;;;;;;;;5040286;28;45426;-71
2022/11/12 14:40:20;;;;;;;;;29.00;27.33;;;;;;;;5034679;28;45377;-71
2022/11/12 14:42:46;;;;;;;;;30.00;27.33;;;;;;;;5044455;28;45341;-71